Weather at Te Kuiti Airfield

Public forecast

Using degrees Celsius for public forecast. Weather courtesy of forecast.io.

Closest aviation weather report (METAR) to Te Kuiti Airfield

Closest report is Auckland International Airport, 79.6 nm (147.4 km) NNW. Retrieved 2021/01/25 07:30 UTC (0 seconds ago):

NZAA 250730Z AUTO 23011KT 9999 NCD 20/14 Q1013 TEMPO BKN014

Closest aviation forecast (TAF) to Te Kuiti Airfield

Closest forecast is Auckland International Airport, 79.6 nm (147.4 km) NNW. Retrieved 2021/01/25 06:03 UTC (1 hour ago):

TAF TAF NZAA 250501Z 2506/2606 24012KT 9999 SCT020 TEMPO 2509/2519 BKN012